createdAt,value
2022-10-10T00:01:29.582Z,93.40
2022-10-10T00:03:57.526Z,93.20
2022-10-10T00:06:30.377Z,92.90
2022-10-10T00:09:00.574Z,93.20
2022-10-10T00:11:28.623Z,92.30
2022-10-10T00:13:57.867Z,91.30
2022-10-10T00:16:26.278Z,90.90
2022-10-10T00:18:54.558Z,90.20
2022-10-10T00:21:22.519Z,91.50
2022-10-10T00:23:50.461Z,91.50
2022-10-10T00:26:19.512Z,91.90
2022-10-10T00:28:47.639Z,92.60
2022-10-10T00:31:17.546Z,92.90
2022-10-10T00:33:46.145Z,92.90
2022-10-10T00:36:14.166Z,93.80
2022-10-10T00:38:42.214Z,93.20
2022-10-10T00:41:10.160Z,84.70
2022-10-10T00:43:38.240Z,85.40
2022-10-10T00:46:06.379Z,90.00
2022-10-10T00:48:38.286Z,89.60
2022-10-10T00:51:10.270Z,90.00
2022-10-10T00:53:42.220Z,91.70
2022-10-10T00:56:12.159Z,84.10
2022-10-10T00:58:47.824Z,83.80
2022-10-10T01:01:15.927Z,90.70
2022-10-10T01:03:45.221Z,94.50
2022-10-10T01:06:13.311Z,94.80
2022-10-10T01:08:41.821Z,91.50
2022-10-10T01:11:25.207Z,91.10
2022-10-10T01:14:04.045Z,84.70
2022-10-10T01:16:40.235Z,92.40
2022-10-10T01:19:50.134Z,89.20
2022-10-10T01:22:30.275Z,85.60
2022-10-10T01:25:08.378Z,89.10
2022-10-10T01:27:46.773Z,91.60
2022-10-10T01:30:18.723Z,90.20
2022-10-10T01:32:53.099Z,94.60
2022-10-10T01:35:34.209Z,92.90
2022-10-10T01:38:11.530Z,92.10
2022-10-10T01:40:46.468Z,87.50
2022-10-10T01:43:14.422Z,87.40
2022-10-10T01:45:47.096Z,90.60
2022-10-10T01:48:18.101Z,90.90
2022-10-10T01:51:08.067Z,92.70
2022-10-10T01:53:42.858Z,93.00
2022-10-10T01:56:19.616Z,93.20
2022-10-10T01:59:05.560Z,95.00
2022-10-10T02:01:42.357Z,93.30
2022-10-10T02:04:18.447Z,91.90
2022-10-10T02:06:52.720Z,91.80
2022-10-10T02:09:27.227Z,86.80
2022-10-10T02:11:56.450Z,92.80
2022-10-10T02:14:29.250Z,94.10
2022-10-10T02:17:01.180Z,93.90
2022-10-10T02:19:31.119Z,93.20
2022-10-10T02:21:59.930Z,92.90
2022-10-10T02:24:27.890Z,95.50
2022-10-10T02:27:00.860Z,95.40
2022-10-10T02:29:32.975Z,94.90
2022-10-10T02:32:06.667Z,94.40
2022-10-10T02:34:36.826Z,92.80
2022-10-10T02:37:12.408Z,94.00
2022-10-10T02:39:43.546Z,94.00
2022-10-10T02:42:13.764Z,94.70
2022-10-10T02:44:42.631Z,93.10
2022-10-10T02:47:12.069Z,94.30
2022-10-10T02:49:40.086Z,93.90
2022-10-10T02:52:08.399Z,93.50
2022-10-10T02:54:36.295Z,95.30
2022-10-10T02:57:04.161Z,95.20
2022-10-10T02:59:32.053Z,93.60
2022-10-10T03:01:59.920Z,94.20
2022-10-10T03:04:29.266Z,95.40
2022-10-10T03:06:57.173Z,95.30
2022-10-10T03:09:25.071Z,94.30
2022-10-10T03:11:52.971Z,94.80
2022-10-10T03:14:20.876Z,95.30
2022-10-10T03:16:48.715Z,94.20
2022-10-10T03:19:16.612Z,95.10
2022-10-10T03:21:45.900Z,95.30
2022-10-10T03:24:13.806Z,95.30
2022-10-10T03:26:41.719Z,95.20
2022-10-10T03:29:09.647Z,95.20
2022-10-10T03:31:37.556Z,94.00
2022-10-10T03:34:05.431Z,94.80
2022-10-10T03:36:33.325Z,94.00
2022-10-10T03:39:02.895Z,93.50
2022-10-10T03:41:30.791Z,94.80
2022-10-10T03:43:58.754Z,94.70
2022-10-10T03:46:26.711Z,95.00
2022-10-10T03:48:55.113Z,95.00
2022-10-10T03:51:23.088Z,95.10
2022-10-10T03:53:50.984Z,95.00
2022-10-10T03:56:20.252Z,95.20
2022-10-10T03:58:48.137Z,95.10
2022-10-10T04:01:16.119Z,95.10
2022-10-10T04:03:46.596Z,94.90
2022-10-10T04:06:17.971Z,94.60
2022-10-10T04:08:45.843Z,94.70
2022-10-10T04:11:13.767Z,94.50
2022-10-10T04:13:42.992Z,94.50
2022-10-10T04:16:10.892Z,94.20
2022-10-10T04:18:38.809Z,94.20
2022-10-10T04:21:07.306Z,94.80
2022-10-10T04:23:35.188Z,95.40
2022-10-10T04:26:03.064Z,95.90
2022-10-10T04:28:31.180Z,96.60
2022-10-10T04:31:00.498Z,96.70
2022-10-10T04:33:28.411Z,96.90
2022-10-10T04:35:56.285Z,97.00
2022-10-10T04:38:24.184Z,97.30
2022-10-10T04:40:52.459Z,97.20
2022-10-10T04:43:20.640Z,97.30
2022-10-10T04:45:48.746Z,97.20
2022-10-10T04:48:18.002Z,97.00
2022-10-10T04:50:45.974Z,97.20
2022-10-10T04:53:14.131Z,97.10
2022-10-10T04:55:42.015Z,97.10
2022-10-10T04:58:09.879Z,96.70
2022-10-10T05:00:39.543Z,96.50
2022-10-10T05:03:07.519Z,96.30
2022-10-10T05:05:36.784Z,96.30
2022-10-10T05:08:04.764Z,96.60
2022-10-10T05:10:36.825Z,96.10
2022-10-10T05:13:04.709Z,96.10
2022-10-10T05:15:34.673Z,96.10
2022-10-10T05:18:02.588Z,96.30
2022-10-10T05:20:31.318Z,94.90
2022-10-10T05:23:00.559Z,96.10
2022-10-10T05:25:28.788Z,95.90
2022-10-10T05:27:56.749Z,96.70
2022-10-10T05:30:24.635Z,97.30
2022-10-10T05:32:52.798Z,97.30
2022-10-10T05:35:20.872Z,96.90
2022-10-10T05:37:48.812Z,96.50
2022-10-10T05:40:18.376Z,94.70
2022-10-10T05:42:46.232Z,95.80
2022-10-10T05:45:14.117Z,96.10
2022-10-10T05:47:41.981Z,96.10
2022-10-10T05:50:24.424Z,94.90
2022-10-10T05:52:52.638Z,94.30
2022-10-10T05:55:22.229Z,94.10
2022-10-10T05:57:50.145Z,94.20
2022-10-10T06:00:18.305Z,94.30
2022-10-10T06:02:46.315Z,94.40
2022-10-10T06:05:14.229Z,94.90
2022-10-10T06:08:03.402Z,95.10
2022-10-10T06:10:31.464Z,95.10
2022-10-10T06:12:59.305Z,93.00
2022-10-10T06:15:27.251Z,92.10
2022-10-10T06:17:55.111Z,92.30
2022-10-10T06:20:23.003Z,92.50
2022-10-10T06:22:51.220Z,92.80
2022-10-10T06:25:38.837Z,92.80
2022-10-10T06:28:08.904Z,92.50
2022-10-10T06:30:41.072Z,93.10
2022-10-10T06:33:09.048Z,92.90
2022-10-10T06:35:41.610Z,91.60
2022-10-10T06:38:09.981Z,90.60
2022-10-10T06:40:37.896Z,90.30
2022-10-10T06:43:08.767Z,90.10
2022-10-10T06:45:38.756Z,90.20
2022-10-10T06:48:07.018Z,90.20
2022-10-10T06:50:35.221Z,90.20
2022-10-10T06:53:03.175Z,90.30
2022-10-10T06:55:31.186Z,90.40
2022-10-10T06:57:59.351Z,90.80
2022-10-10T07:00:27.418Z,90.60
2022-10-10T07:02:56.637Z,90.90
2022-10-10T07:05:24.551Z,91.10
2022-10-10T07:07:53.986Z,91.20
2022-10-10T07:10:22.437Z,91.30
2022-10-10T07:12:50.463Z,91.80
2022-10-10T07:15:18.367Z,92.10
2022-10-10T07:17:49.341Z,92.10
2022-10-10T07:20:22.741Z,92.00
2022-10-10T07:22:51.069Z,91.90
2022-10-10T07:25:19.168Z,91.80
2022-10-10T07:27:47.052Z,91.60
2022-10-10T07:30:15.404Z,91.50
2022-10-10T07:32:43.479Z,91.40
2022-10-10T07:35:11.906Z,91.20
2022-10-10T07:37:41.306Z,91.50
2022-10-10T07:40:10.384Z,91.50
2022-10-10T07:42:38.317Z,91.50
2022-10-10T07:45:07.540Z,91.50
2022-10-10T07:47:35.417Z,91.50
2022-10-10T07:50:03.342Z,91.50
2022-10-10T07:52:31.227Z,91.40
2022-10-10T07:55:00.501Z,91.20
2022-10-10T07:57:28.606Z,91.10
2022-10-10T07:59:56.485Z,91.40
2022-10-10T08:02:24.337Z,91.90
2022-10-10T08:04:52.199Z,92.40
2022-10-10T08:07:20.308Z,92.80
2022-10-10T08:09:48.319Z,92.70
2022-10-10T08:12:17.654Z,92.70
2022-10-10T08:14:45.794Z,92.70
2022-10-10T08:17:13.712Z,92.50
2022-10-10T08:19:41.922Z,92.40
2022-10-10T08:22:09.840Z,92.20
2022-10-10T08:24:37.708Z,92.10
2022-10-10T08:27:05.596Z,92.00
2022-10-10T08:29:35.031Z,92.10
2022-10-10T08:32:02.876Z,92.00
2022-10-10T08:34:30.770Z,92.00
2022-10-10T08:36:58.650Z,92.00
2022-10-10T08:39:26.525Z,92.10
2022-10-10T08:41:58.320Z,92.10
2022-10-10T08:44:30.279Z,92.60
2022-10-10T08:47:02.804Z,92.70
2022-10-10T08:49:35.545Z,92.30
2022-10-10T08:52:08.833Z,92.10
2022-10-10T08:54:38.807Z,92.20
2022-10-10T08:57:12.011Z,91.90
2022-10-10T08:59:41.728Z,91.80
2022-10-10T09:02:50.192Z,91.50
2022-10-10T09:05:21.757Z,91.60
2022-10-10T09:08:09.094Z,91.80
2022-10-10T09:10:45.725Z,91.40
2022-10-10T09:13:25.439Z,91.30
2022-10-10T09:15:58.708Z,91.40
2022-10-10T09:18:43.151Z,91.30
2022-10-10T09:21:17.211Z,91.20
2022-10-10T09:23:49.659Z,91.60
2022-10-10T09:26:20.979Z,91.60
2022-10-10T09:28:54.871Z,91.70
2022-10-10T09:31:27.908Z,92.20
2022-10-10T09:34:01.487Z,92.40
2022-10-10T09:36:34.102Z,92.30
2022-10-10T09:39:07.517Z,92.70
2022-10-10T09:41:40.506Z,92.30
2022-10-10T09:44:13.386Z,92.20
2022-10-10T09:46:41.878Z,92.10
2022-10-10T09:49:16.541Z,92.10
2022-10-10T09:51:44.780Z,92.00
2022-10-10T09:54:15.104Z,92.10
2022-10-10T09:56:46.185Z,92.20
2022-10-10T09:59:39.567Z,92.00
2022-10-10T10:02:15.659Z,91.90
2022-10-10T10:04:45.120Z,91.80
2022-10-10T10:07:22.708Z,91.80
2022-10-10T10:09:52.133Z,91.70
2022-10-10T10:12:23.787Z,91.70
2022-10-10T10:14:53.746Z,91.70
2022-10-10T10:17:24.220Z,91.60
2022-10-10T10:19:53.823Z,91.70
2022-10-10T10:22:34.142Z,91.90
2022-10-10T10:25:31.635Z,92.00
2022-10-10T10:28:21.789Z,92.60
2022-10-10T10:30:49.914Z,92.40
2022-10-10T10:33:28.908Z,92.10
2022-10-10T10:36:03.903Z,91.60
2022-10-10T10:38:43.376Z,91.60
2022-10-10T10:41:23.176Z,91.40
2022-10-10T10:44:07.052Z,91.40
2022-10-10T10:46:48.232Z,91.40
2022-10-10T10:49:24.801Z,91.30
2022-10-10T10:52:19.868Z,91.40
2022-10-10T10:55:04.637Z,91.30
2022-10-10T10:58:04.614Z,91.20
2022-10-10T11:01:23.752Z,91.20
2022-10-10T11:04:15.805Z,91.20
2022-10-10T11:06:53.936Z,91.20
2022-10-10T11:09:49.646Z,91.60
2022-10-10T11:12:37.199Z,91.60
2022-10-10T11:15:11.485Z,91.30
2022-10-10T11:17:42.267Z,91.60
2022-10-10T11:20:21.516Z,91.60
2022-10-10T11:22:53.741Z,91.30
2022-10-10T11:25:27.595Z,91.20
2022-10-10T11:28:00.016Z,91.00
2022-10-10T11:30:31.888Z,90.80
2022-10-10T11:33:06.639Z,90.80
2022-10-10T11:35:41.748Z,90.80
2022-10-10T11:38:21.555Z,90.70
2022-10-10T11:40:54.705Z,90.60
2022-10-10T11:43:31.461Z,90.50
2022-10-10T11:46:06.345Z,90.50
2022-10-10T11:48:42.783Z,90.40
2022-10-10T11:51:22.800Z,90.40
2022-10-10T11:53:53.032Z,90.30
2022-10-10T11:56:28.802Z,89.90
2022-10-10T11:59:02.916Z,90.50
2022-10-10T12:01:34.644Z,90.70
2022-10-10T12:04:02.476Z,90.10
2022-10-10T12:06:36.420Z,87.40
2022-10-10T12:09:09.610Z,86.90
2022-10-10T12:11:42.630Z,86.30
2022-10-10T12:14:14.754Z,86.20
2022-10-10T12:16:42.788Z,86.50
2022-10-10T12:19:19.424Z,86.60
2022-10-10T12:21:56.853Z,86.30
2022-10-10T12:24:26.062Z,85.60
2022-10-10T12:27:29.243Z,86.00
2022-10-10T12:30:29.017Z,86.20
2022-10-10T12:32:57.501Z,86.60
2022-10-10T12:35:35.320Z,86.60
2022-10-10T12:38:23.783Z,86.90
2022-10-10T12:41:15.850Z,86.80
2022-10-10T12:43:51.713Z,87.30
2022-10-10T12:46:27.330Z,87.50
2022-10-10T12:49:01.586Z,88.10
2022-10-10T12:51:31.702Z,87.90
2022-10-10T12:54:03.486Z,88.40
2022-10-10T12:56:41.631Z,87.90
2022-10-10T12:59:20.116Z,88.10
2022-10-10T13:01:52.840Z,88.20
2022-10-10T13:04:21.927Z,88.20
2022-10-10T13:06:53.375Z,88.30
2022-10-10T13:09:24.316Z,88.60
2022-10-10T13:11:55.307Z,89.40
2022-10-10T13:14:26.290Z,89.20
2022-10-10T13:16:55.067Z,89.10
2022-10-10T13:19:25.123Z,89.00
2022-10-10T13:21:56.242Z,89.30
2022-10-10T13:24:32.608Z,89.30
2022-10-10T13:27:01.948Z,89.60
2022-10-10T13:29:33.650Z,90.00
2022-10-10T13:32:05.904Z,90.10
2022-10-10T13:34:37.243Z,89.80
2022-10-10T13:37:07.118Z,89.50
2022-10-10T13:39:38.013Z,89.90
2022-10-10T13:42:07.750Z,90.00
2022-10-10T13:44:51.670Z,89.70
2022-10-10T13:47:47.614Z,89.60
2022-10-10T13:50:22.508Z,89.80
2022-10-10T13:52:50.412Z,89.80
2022-10-10T13:55:25.287Z,89.80
2022-10-10T13:57:58.257Z,89.90
2022-10-10T14:00:32.923Z,90.40
2022-10-10T14:03:01.048Z,90.10
2022-10-10T14:05:32.116Z,90.00
2022-10-10T14:08:00.707Z,90.10
2022-10-10T14:10:33.617Z,90.00
2022-10-10T14:13:02.029Z,90.00
2022-10-10T14:15:43.949Z,88.90
2022-10-10T14:18:17.611Z,87.60
2022-10-10T14:20:45.698Z,87.50
2022-10-10T14:23:14.031Z,86.10
2022-10-10T14:25:43.578Z,85.60
2022-10-10T14:28:18.023Z,85.70
2022-10-10T14:30:47.931Z,85.30
2022-10-10T14:33:17.855Z,84.70
2022-10-10T14:35:47.257Z,84.60
2022-10-10T14:38:15.893Z,84.50
2022-10-10T14:40:46.141Z,84.90
2022-10-10T14:43:14.204Z,84.90
2022-10-10T14:45:42.088Z,85.00
2022-10-10T14:48:12.671Z,84.80
2022-10-10T14:50:44.371Z,84.60
2022-10-10T14:53:12.764Z,84.70
2022-10-10T14:55:43.274Z,85.00
2022-10-10T14:58:15.515Z,85.00
2022-10-10T15:00:43.928Z,85.00
2022-10-10T15:03:13.377Z,85.50
2022-10-10T15:05:41.743Z,85.40
2022-10-10T15:08:11.283Z,85.30
2022-10-10T15:10:39.192Z,86.10
2022-10-10T15:13:07.097Z,85.40
2022-10-10T15:15:35.038Z,85.10
2022-10-10T15:18:02.904Z,85.50
2022-10-10T15:20:32.184Z,85.50
2022-10-10T15:23:00.570Z,87.10
2022-10-10T15:25:33.618Z,86.80
2022-10-10T15:28:03.365Z,86.70
2022-10-10T15:30:31.844Z,86.40
2022-10-10T15:32:59.740Z,86.10
2022-10-10T15:35:39.966Z,86.20
2022-10-10T15:38:17.731Z,86.40
2022-10-10T15:40:45.600Z,87.50
2022-10-10T15:43:15.856Z,86.80
2022-10-10T15:45:55.545Z,86.50
2022-10-10T15:48:24.194Z,88.10
2022-10-10T15:50:52.350Z,85.70
2022-10-10T15:53:21.660Z,87.70
2022-10-10T15:55:49.567Z,87.90
2022-10-10T15:58:17.505Z,86.90
2022-10-10T16:00:46.071Z,87.50
2022-10-10T16:03:14.061Z,86.50
2022-10-10T16:05:43.779Z,86.20
2022-10-10T16:08:12.393Z,84.30
2022-10-10T16:10:43.011Z,85.70
2022-10-10T16:13:11.612Z,86.30
2022-10-10T16:15:39.556Z,86.90
2022-10-10T16:18:07.495Z,86.00
2022-10-10T16:20:35.386Z,86.70
2022-10-10T16:23:03.238Z,86.00
2022-10-10T16:25:31.176Z,87.10
2022-10-10T16:28:00.374Z,86.00
2022-10-10T16:30:28.281Z,87.70
2022-10-10T16:32:56.168Z,88.10
2022-10-10T16:35:23.996Z,89.70
2022-10-10T16:37:51.973Z,89.70
2022-10-10T16:40:19.956Z,90.50
2022-10-10T16:42:47.874Z,91.20
2022-10-10T16:45:17.233Z,90.70
2022-10-10T16:47:45.095Z,90.60
2022-10-10T16:50:13.219Z,91.40
2022-10-10T16:52:41.566Z,91.40
2022-10-10T16:55:11.197Z,91.20
2022-10-10T16:57:39.443Z,90.70
2022-10-10T17:00:09.519Z,90.70
2022-10-10T17:02:42.010Z,90.60
2022-10-10T17:05:10.195Z,90.90
2022-10-10T17:07:38.072Z,90.90
2022-10-10T17:10:06.995Z,90.90
2022-10-10T17:12:34.921Z,91.00
2022-10-10T17:15:03.549Z,91.30
2022-10-10T17:17:31.619Z,91.10
2022-10-10T17:20:01.952Z,91.00
2022-10-10T17:22:30.109Z,91.10
2022-10-10T17:24:58.120Z,91.00
2022-10-10T17:27:26.161Z,91.40
2022-10-10T17:29:54.221Z,90.80
2022-10-10T17:32:22.346Z,90.80
2022-10-10T17:34:50.631Z,90.60
2022-10-10T17:37:19.850Z,90.70
2022-10-10T17:39:47.899Z,90.40
2022-10-10T17:42:15.918Z,92.30
2022-10-10T17:44:50.457Z,91.60
2022-10-10T17:47:21.765Z,92.50
2022-10-10T17:49:49.671Z,92.90
2022-10-10T17:52:21.253Z,93.60
2022-10-10T17:54:49.504Z,93.70
2022-10-10T17:57:17.854Z,93.80
2022-10-10T17:59:45.924Z,93.40
2022-10-10T18:02:16.098Z,92.90
2022-10-10T18:04:44.072Z,93.50
2022-10-10T18:07:12.809Z,93.30
2022-10-10T18:09:42.203Z,93.20
2022-10-10T18:12:10.074Z,94.10
2022-10-10T18:14:38.175Z,94.30
2022-10-10T18:17:06.055Z,94.60
2022-10-10T18:19:34.036Z,92.70
2022-10-10T18:22:01.920Z,93.00
2022-10-10T18:24:30.143Z,93.80
2022-10-10T18:26:59.520Z,92.70
2022-10-10T18:29:27.424Z,92.40
2022-10-10T18:31:56.384Z,92.40
2022-10-10T18:34:24.478Z,92.60
2022-10-10T18:36:52.397Z,92.40
2022-10-10T18:39:20.289Z,92.40
2022-10-10T18:41:48.514Z,92.90
2022-10-10T18:44:19.216Z,93.00
2022-10-10T18:46:47.238Z,94.00
2022-10-10T18:49:15.218Z,93.10
2022-10-10T18:51:44.238Z,93.90
2022-10-10T18:54:15.251Z,93.90
2022-10-10T18:56:44.094Z,94.30
2022-10-10T18:59:13.461Z,94.00
2022-10-10T19:01:45.467Z,93.20
2022-10-10T19:04:15.455Z,92.90
2022-10-10T19:06:44.514Z,93.20
2022-10-10T19:09:14.823Z,93.20
2022-10-10T19:11:44.938Z,92.90
2022-10-10T19:14:15.099Z,92.70
2022-10-10T19:16:45.476Z,91.50
2022-10-10T19:19:15.411Z,92.70
2022-10-10T19:21:44.745Z,92.50
2022-10-10T19:24:15.132Z,92.50
2022-10-10T19:26:44.642Z,91.10
2022-10-10T19:29:13.371Z,91.80
2022-10-10T19:31:41.545Z,92.00
2022-10-10T19:34:10.835Z,92.50
2022-10-10T19:36:39.967Z,92.90
2022-10-10T19:39:09.935Z,91.90
2022-10-10T19:41:37.797Z,92.50
2022-10-10T19:44:05.888Z,92.60
2022-10-10T19:46:37.166Z,92.90
2022-10-10T19:49:06.280Z,93.00
2022-10-10T19:51:35.472Z,93.00
2022-10-10T19:54:03.308Z,93.00
2022-10-10T19:56:31.455Z,92.80
2022-10-10T19:59:04.145Z,92.80
2022-10-10T20:01:32.474Z,93.10
2022-10-10T20:04:00.467Z,93.10
2022-10-10T20:06:28.659Z,93.30
2022-10-10T20:08:57.913Z,93.50
2022-10-10T20:11:26.308Z,93.50
2022-10-10T20:13:55.606Z,93.40
2022-10-10T20:16:24.968Z,93.40
2022-10-10T20:18:53.160Z,93.60
2022-10-10T20:21:23.318Z,93.50
2022-10-10T20:23:51.595Z,93.40
2022-10-10T20:26:22.639Z,93.40
2022-10-10T20:28:51.199Z,92.80
2022-10-10T20:31:21.352Z,92.50
2022-10-10T20:33:50.477Z,92.90
2022-10-10T20:36:19.232Z,93.00
2022-10-10T20:38:52.973Z,93.20
2022-10-10T20:41:22.975Z,93.30
2022-10-10T20:43:50.999Z,93.20
2022-10-10T20:46:18.858Z,93.20
2022-10-10T20:48:46.789Z,93.30
2022-10-10T20:51:15.075Z,93.00
2022-10-10T20:53:42.957Z,92.60
2022-10-10T20:56:12.873Z,92.90
2022-10-10T20:58:42.198Z,93.10
2022-10-10T21:01:12.445Z,93.30
2022-10-10T21:03:41.713Z,93.00
2022-10-10T21:06:11.855Z,92.70
2022-10-10T21:08:40.384Z,93.00
2022-10-10T21:11:10.274Z,93.10
2022-10-10T21:13:41.794Z,93.00
2022-10-10T21:16:11.166Z,93.00
2022-10-10T21:18:39.096Z,92.90
2022-10-10T21:21:08.326Z,93.00
2022-10-10T21:23:39.225Z,92.90
2022-10-10T21:26:09.373Z,92.80
2022-10-10T21:28:37.729Z,92.70
2022-10-10T21:31:07.402Z,92.60
2022-10-10T21:33:35.825Z,92.80
2022-10-10T21:36:04.154Z,92.90
2022-10-10T21:38:32.269Z,92.60
2022-10-10T21:41:05.461Z,92.70
2022-10-10T21:43:33.951Z,92.00
2022-10-10T21:46:07.540Z,92.30
2022-10-10T21:48:36.236Z,92.30
2022-10-10T21:51:04.216Z,91.90
2022-10-10T21:53:32.405Z,91.30
2022-10-10T21:56:00.525Z,90.90
2022-10-10T21:58:28.445Z,92.30
2022-10-10T22:00:56.361Z,92.70
2022-10-10T22:03:25.731Z,92.10
2022-10-10T22:05:53.602Z,92.90
2022-10-10T22:08:21.448Z,92.40
2022-10-10T22:10:49.306Z,92.00
2022-10-10T22:13:17.222Z,92.20
2022-10-10T22:15:45.326Z,92.60
2022-10-10T22:18:13.208Z,92.30
2022-10-10T22:20:42.462Z,92.60
2022-10-10T22:23:10.312Z,92.60
2022-10-10T22:25:38.244Z,92.50
2022-10-10T22:28:06.578Z,90.90
2022-10-10T22:30:34.588Z,91.80
2022-10-10T22:33:02.621Z,92.20
2022-10-10T22:35:30.488Z,92.70
2022-10-10T22:37:59.777Z,92.60
2022-10-10T22:40:27.870Z,92.50
2022-10-10T22:42:55.869Z,92.60
2022-10-10T22:45:24.232Z,92.60
2022-10-10T22:47:52.145Z,92.70
2022-10-10T22:50:20.522Z,92.70
2022-10-10T22:52:48.554Z,92.70
2022-10-10T22:55:18.868Z,92.40
2022-10-10T22:57:47.087Z,92.40
2022-10-10T23:00:16.455Z,92.60
2022-10-10T23:02:44.335Z,92.80
2022-10-10T23:05:12.212Z,93.00
2022-10-10T23:07:40.076Z,92.80
2022-10-10T23:10:09.416Z,92.90
2022-10-10T23:12:38.857Z,92.90
2022-10-10T23:15:07.589Z,92.80
2022-10-10T23:17:35.972Z,93.30
2022-10-10T23:20:04.657Z,92.90
2022-10-10T23:22:32.594Z,93.10
2022-10-10T23:25:00.459Z,93.00
2022-10-10T23:27:28.368Z,92.80
2022-10-10T23:29:57.624Z,92.60
2022-10-10T23:32:29.155Z,92.40
2022-10-10T23:34:57.431Z,92.30
2022-10-10T23:37:25.532Z,92.30
2022-10-10T23:39:53.406Z,92.20
2022-10-10T23:42:21.433Z,92.20
2022-10-10T23:44:49.266Z,92.30
2022-10-10T23:47:18.529Z,92.60
2022-10-10T23:49:46.432Z,92.20
2022-10-10T23:52:14.279Z,92.10
2022-10-10T23:54:42.942Z,92.10
2022-10-10T23:57:10.791Z,92.00
2022-10-10T23:59:38.666Z,92.20
